Etusivu
METAR-TAF:

METAR-TAF

Lentoasemat :

Luganville, Espiritu Santo, Vanuatu

Leveyspiiri: 15-31S, Pituuspiiri: 167-13E, korkeus merenpinnasta: 41 m

Tämänhetkinen sää

Tämä raportti tehtiin 52 minuuttia sitten, kello 03.00 UTC
Tuuli 7 kn etelästä/kaakosta, vaihdellen idän/kaakon ja etelän/lounaan välillä
Lämpötila 28°C
Kosteus 79%
Ilmanpaine 1013 hPa
Näkyvyys 10 km tai enemmän
Hajanaisia pilviä 2000 ft:n korkeudessa

METAR: NVSS 220300Z 15007KT 120V210 9999 SCT020 28/24 Q1013

Aika: 14:52 (03:52 UTC)

Sääennuste

Tämä raportti tehtiin 4 tuntia ja 52 minuuttia sitten, kello 23.00 UTC
Ennuste voimassa 22. päivästä klo 00 UTC - 22. päivään klo 24 UTC
Tuuli 12 kn kaakosta
Näkyvyys: 9000 m
Hajanaisia pilviä 2000 ft:n korkeudessa
Hajonneita pilviä 4000 ft:n korkeudessa
Muutamia pilviä 1800 ft:n korkeudessa
Hajonneita pilviä 3800 ft:n korkeudessa
heikkoja vesikuuroja,

TAF: NVSS 212300Z 2200/2224 13012KT 9999 SCT020 BKN040 INTER 2200/2206 9000 -SHRA FEW018 BKN038

Säähavainnot ja -ennusteet yli 4000 lentoasemalta (METAR- ja TAF-raportit).

Käytössä olevat sääasemat on merkitty karttaan keltaisilla ja punaisilla pisteillä.

Aseta hiiri pisteen päälle nähdäksesi sääaseman nimen.

Klikkaa sitten nähdäksesi säähavainnot ja -ennusteet.

Kartan vaihtaminen: klikkaa mustalla rastilla varustettuja vihreitä pisteitä, niin voit zoomata sisään; viivalla varustettua vihreää pistettä, niin voit zoomata ulos tai vihreitä nuolia, niin pääset viereisille kartoille.


METAR-TAF: